Terminal Aerodrome Forecast
Issued by NWS

Home | Current Version | Previous Version | Text Only | Print | Product List | Glossary On
Versions: 1 2 3 4 5 6 7 8 9 10 11 12 13 14 15 16 17
439
FTUS44 KEWX 151120
TAFSSF
TAF
KSSF 151120Z 1512/1612 01006KT P6SM BKN100 OVC200
     FM160000 VRB02KT P6SM OVC200=

USA.gov is the U.S. government's official web portal to all federal, state and local government web resources and services.